Cherryvale, KS

11:21 PM CDT on August 20, 2014 (GMT -0500)
Tri-City | Change Station
CLOSE
Current Station
Airport
Location: Parsons,
Elevation: 899 ft
Nearby Weather Stations

Elev 899 ft 37.33 °N, 95.50 °W | Updated 29 minutes ago

Clear
Clear
81 °F
Feels Like 84 °F
N
7
Wind Variable Wind from SSE

Today
High -- | Low -- °F
--% Chance of Precip.
Yesterday
High -- | Low -- °F
Precip. -- in
6:42 AM 8:07 PM
Waning Crescent, 17% visible
Pressure 29.88 in
Visibility 10.0 miles
Clouds Clear
Heat Index 84 °F
Dew Point 68 °F
Humidity 65%
Rainfall 0.00 in
Snow Depth Not available.
UV 0 out of 12
Pollen 9.10 out of 12
Air Quality Not available.
Flu Activity Not available.
METAR KPPF 210352Z AUTO 16006KT 10SM CLR 27/20 A2992 RMK AO2 SLP119 T02720200

More Conditions Fewer Conditions

Pressure 29.88 in
Visibility 10.0 miles
Clouds Clear
Heat Index 84 °F
Dew Point 68 °F
Humidity 65%
Rainfall 0.00 in
Snow Depth Not available.
UV 0 out of 12
Pollen 9.10 out of 12
Air Quality Not available.
Flu Activity Not available.
METAR KPPF 210352Z AUTO 16006KT 10SM CLR 27/20 A2992 RMK AO2 SLP119 T02720200

More Conditions Fewer Conditions

10-Day Weather Forecast

Almanac

Astronomy

Aug. 20, 2014 Rise Set
Actual Time 6:42 AM CDT 8:07 PM CDT
Civil Twilight 6:15 AM CDT 8:34 PM CDT
Nautical Twilight 5:42 AM CDT 9:07 PM CDT
Astronomical Twilight 5:07 AM CDT 9:42 PM CDT
Moon 2:25 AM CDT (8/20) 4:51 PM CDT (8/20)
Length of Visible Light 14h 19m
Length of Day
13h 25m
Tomorrow will be 2m 11s shorter.
Waning Crescent, 17% of the Moon is Illuminated
Aug 21
Waning Crescent
Aug 25
New
Sep 2
First Quarter
Sep 8
Full
Sep 15
Last Quarter

Today's Extremes

State Highs State Lows

Community

WunderPhotos

Upload Photos

1,745,852 photos uploaded!

Nearby

Snow Depth

Station Depth Elevation
No new snow has been reported.

Earthquake Activity

City Distance Mag. Time & Date
Langston, Oklahoma 135 miles 2.9 9:49 PM CDT
2014-08-14
Perry, Oklahoma 112 miles 2.7 6:20 PM CDT
2014-08-14
Perry, Oklahoma 111 miles 2.8 2:04 PM CDT
2014-08-14
Boley, Oklahoma 145 miles 2.8 11:38 AM CDT
2014-08-14
Minimum magnitude displayed is 2.5.

Coastal Water Temperatures

Place Temperature
No Stations Reporting

Nearby Weather Stations